createdAt,value
2023-05-05T00:00:07.011Z,0.00
2023-05-05T00:01:06.879Z,0.00
2023-05-05T00:02:06.919Z,0.00
2023-05-05T00:03:06.939Z,0.00
2023-05-05T00:04:07.008Z,0.00
2023-05-05T00:05:07.022Z,0.00
2023-05-05T00:06:07.101Z,0.00
2023-05-05T00:07:07.154Z,0.00
2023-05-05T00:08:07.155Z,0.00
2023-05-05T00:09:07.244Z,0.00
2023-05-05T00:10:07.476Z,0.00
2023-05-05T00:11:07.300Z,0.00
2023-05-05T00:12:07.319Z,0.00
2023-05-05T00:13:07.434Z,0.00
2023-05-05T00:14:07.344Z,0.00
2023-05-05T00:15:07.408Z,0.00
2023-05-05T00:16:07.451Z,0.00
2023-05-05T00:17:07.487Z,0.00
2023-05-05T00:18:07.637Z,0.00
2023-05-05T00:19:07.565Z,0.00
2023-05-05T00:20:07.951Z,0.00
2023-05-05T00:21:07.621Z,0.00
2023-05-05T00:22:07.615Z,0.00
2023-05-05T00:23:07.659Z,0.00
2023-05-05T00:24:07.677Z,0.00
2023-05-05T00:25:07.703Z,0.00
2023-05-05T00:26:07.728Z,0.00
2023-05-05T00:27:07.763Z,0.00
2023-05-05T00:28:07.748Z,0.00
2023-05-05T00:29:07.809Z,0.00
2023-05-05T00:30:08.174Z,0.00
2023-05-05T00:31:07.873Z,0.00
2023-05-05T00:32:07.863Z,0.00
2023-05-05T00:33:07.868Z,0.00
2023-05-05T00:34:07.945Z,0.00
2023-05-05T00:35:07.998Z,0.00
2023-05-05T00:36:08.030Z,0.00
2023-05-05T00:37:08.054Z,0.00
2023-05-05T00:38:08.062Z,0.00
2023-05-05T00:39:08.095Z,0.00
2023-05-05T00:40:08.337Z,0.00
2023-05-05T00:41:08.224Z,0.00
2023-05-05T00:42:08.195Z,0.00
2023-05-05T00:43:08.255Z,0.00
2023-05-05T00:44:08.305Z,0.00
2023-05-05T00:45:08.299Z,0.00
2023-05-05T00:46:08.385Z,0.00
2023-05-05T00:47:08.394Z,0.00
2023-05-05T00:48:08.441Z,0.00
2023-05-05T00:49:08.531Z,0.00
2023-05-05T00:50:08.722Z,0.00
2023-05-05T00:51:08.574Z,0.00
2023-05-05T00:52:08.629Z,0.00
2023-05-05T00:53:08.662Z,0.00
2023-05-05T00:54:08.682Z,0.00
2023-05-05T00:55:08.679Z,0.00
2023-05-05T00:56:08.750Z,0.00
2023-05-05T00:57:08.759Z,0.00
2023-05-05T00:58:08.840Z,0.00
2023-05-05T00:59:08.863Z,0.00
2023-05-05T01:00:09.093Z,0.00
2023-05-05T01:01:09.026Z,0.00
2023-05-05T01:02:08.975Z,0.00
2023-05-05T01:03:09.207Z,0.00
2023-05-05T01:04:09.046Z,0.00
2023-05-05T01:05:09.098Z,0.00
2023-05-05T01:06:09.113Z,0.00
2023-05-05T01:07:09.122Z,0.00
2023-05-05T01:08:09.155Z,0.00
2023-05-05T01:09:09.168Z,0.00
2023-05-05T01:10:19.545Z,0.00
2023-05-05T01:11:09.217Z,0.00
2023-05-05T01:12:09.245Z,0.00
2023-05-05T01:13:09.406Z,0.00
2023-05-05T01:14:09.300Z,0.00
2023-05-05T01:15:09.325Z,0.00
2023-05-05T01:16:09.333Z,0.00
2023-05-05T01:17:09.354Z,0.00
2023-05-05T01:18:09.374Z,0.00
2023-05-05T01:19:09.386Z,0.00
2023-05-05T01:20:09.593Z,0.00
2023-05-05T01:21:09.441Z,0.00
2023-05-05T01:22:09.436Z,0.00
2023-05-05T01:23:09.480Z,0.00
2023-05-05T01:24:09.522Z,0.00
2023-05-05T01:25:09.520Z,0.00
2023-05-05T01:29:01.572Z,0.00
2023-05-05T01:38:37.401Z,0.00
2023-05-05T01:52:31.259Z,0.00
2023-05-05T01:53:31.357Z,0.00
2023-05-05T01:54:31.290Z,0.00
2023-05-05T01:55:31.390Z,0.00
2023-05-05T01:56:31.382Z,0.00
2023-05-05T01:57:31.451Z,0.00
2023-05-05T01:58:31.433Z,0.00
2023-05-05T01:59:31.448Z,0.00
2023-05-05T02:00:31.503Z,0.00
2023-05-05T02:01:31.589Z,0.00
2023-05-05T02:02:31.655Z,0.00
2023-05-05T02:03:31.639Z,0.00
2023-05-05T02:04:31.612Z,0.00
2023-05-05T02:05:31.639Z,0.00
2023-05-05T02:06:31.646Z,0.00
2023-05-05T02:07:31.667Z,0.00
2023-05-05T02:08:31.697Z,0.00
2023-05-05T02:09:31.754Z,0.00
2023-05-05T02:10:31.794Z,0.00
2023-05-05T02:11:31.807Z,0.00
2023-05-05T02:12:31.892Z,0.00
2023-05-05T02:13:31.920Z,0.00
2023-05-05T02:14:31.918Z,0.00
2023-05-05T02:15:31.976Z,0.00
2023-05-05T02:16:31.982Z,0.00
2023-05-05T02:17:32.087Z,0.00
2023-05-05T02:18:32.076Z,0.00
2023-05-05T02:19:32.090Z,0.00
2023-05-05T02:20:32.108Z,0.00
2023-05-05T02:22:58.098Z,0.00
2023-05-05T02:23:58.187Z,0.00
2023-05-05T02:24:58.204Z,0.00
2023-05-05T02:25:58.264Z,0.00
2023-05-05T02:26:58.296Z,0.00
2023-05-05T02:27:58.330Z,0.00
2023-05-05T02:28:58.311Z,0.00
2023-05-05T02:29:58.367Z,0.00
2023-05-05T02:30:58.396Z,0.00
2023-05-05T02:31:58.403Z,0.00
2023-05-05T02:32:58.436Z,0.00
2023-05-05T02:33:58.451Z,0.00
2023-05-05T02:34:58.461Z,0.00
2023-05-05T02:35:58.463Z,0.00
2023-05-05T02:36:58.507Z,0.00
2023-05-05T02:37:58.520Z,0.00
2023-05-05T02:38:58.619Z,0.00
2023-05-05T02:39:58.679Z,0.00
2023-05-05T02:40:58.674Z,0.00
2023-05-05T02:41:58.711Z,0.00
2023-05-05T02:42:58.767Z,0.00
2023-05-05T02:43:58.739Z,0.00
2023-05-05T02:44:58.700Z,0.00
2023-05-05T02:45:58.750Z,0.00
2023-05-05T02:46:58.767Z,0.00
2023-05-05T02:47:58.829Z,0.00
2023-05-05T02:48:58.789Z,0.00
2023-05-05T02:49:58.822Z,0.00
2023-05-05T02:50:58.840Z,0.00
2023-05-05T02:51:58.853Z,0.00
2023-05-05T02:52:58.867Z,0.00
2023-05-05T02:53:58.868Z,0.00
2023-05-05T02:54:58.927Z,0.00
2023-05-05T02:55:58.954Z,0.00
2023-05-05T02:56:58.966Z,0.00
2023-05-05T02:57:58.946Z,0.00
2023-05-05T02:58:58.986Z,0.00
2023-05-05T02:59:58.996Z,0.00
2023-05-05T03:00:59.038Z,0.00
2023-05-05T03:01:59.146Z,0.00
2023-05-05T03:02:59.156Z,0.00
2023-05-05T03:03:59.116Z,0.00
2023-05-05T03:04:59.057Z,0.00
2023-05-05T03:05:59.106Z,0.00
2023-05-05T03:06:59.115Z,0.00
2023-05-05T03:07:59.194Z,0.00
2023-05-05T03:08:59.249Z,0.00
2023-05-05T03:09:59.280Z,0.00
2023-05-05T03:10:59.296Z,4.00
2023-05-05T03:11:59.319Z,4.00
2023-05-05T03:12:59.370Z,4.00
2023-05-05T03:13:59.347Z,4.00
2023-05-05T03:14:59.375Z,0.00
2023-05-05T03:15:59.448Z,4.00
2023-05-05T03:16:59.430Z,4.00
2023-05-05T03:17:59.500Z,4.00
2023-05-05T03:18:59.456Z,4.00
2023-05-05T03:20:00.525Z,8.00
2023-05-05T03:20:59.451Z,8.00
2023-05-05T03:21:59.537Z,8.00
2023-05-05T03:22:59.599Z,8.00
2023-05-05T03:23:59.586Z,12.00
2023-05-05T03:24:59.600Z,12.00
2023-05-05T03:25:59.656Z,16.00
2023-05-05T03:26:59.658Z,20.00
2023-05-05T03:27:59.730Z,20.00
2023-05-05T03:28:59.686Z,24.00
2023-05-05T03:29:59.730Z,28.00
2023-05-05T03:30:59.782Z,32.00
2023-05-05T03:31:59.867Z,36.00
2023-05-05T03:32:59.889Z,44.00
2023-05-05T03:33:59.895Z,52.00
2023-05-05T03:34:59.931Z,60.00
2023-05-05T03:35:59.972Z,64.00
2023-05-05T03:37:00.032Z,76.00
2023-05-05T03:38:00.037Z,88.00
2023-05-05T03:39:00.059Z,92.00
2023-05-05T03:40:00.126Z,104.00
2023-05-05T03:41:00.132Z,120.00
2023-05-05T03:42:00.160Z,120.00
2023-05-05T03:43:00.156Z,132.00
2023-05-05T03:44:00.192Z,144.00
2023-05-05T03:45:00.195Z,152.00
2023-05-05T03:46:00.185Z,148.00
2023-05-05T03:47:00.182Z,160.00
2023-05-05T03:48:00.263Z,160.00
2023-05-05T03:49:02.837Z,164.00
2023-05-05T03:50:00.365Z,164.00
2023-05-05T03:52:31.886Z,188.00
2023-05-05T03:53:31.524Z,196.00
2023-05-05T03:54:31.548Z,196.00
2023-05-05T03:55:31.772Z,204.00
2023-05-05T03:56:31.681Z,216.00
2023-05-05T03:57:31.694Z,240.00
2023-05-05T03:58:31.755Z,252.00
2023-05-05T03:59:32.699Z,268.00
2023-05-05T04:00:31.794Z,304.00
2023-05-05T04:01:31.846Z,324.00
2023-05-05T04:02:31.912Z,352.00
2023-05-05T04:03:31.982Z,388.00
2023-05-05T04:04:32.045Z,404.00
2023-05-05T04:05:31.964Z,424.00
2023-05-05T04:06:31.997Z,496.00
2023-05-05T04:07:31.958Z,536.00
2023-05-05T04:08:32.030Z,552.00
2023-05-05T04:09:32.065Z,612.00
2023-05-05T04:10:32.175Z,608.00
2023-05-05T04:11:32.203Z,688.00
2023-05-05T04:12:32.219Z,692.00
2023-05-05T04:13:32.184Z,676.00
2023-05-05T04:14:32.281Z,660.00
2023-05-05T04:15:32.303Z,732.00
2023-05-05T04:16:32.296Z,728.00
2023-05-05T04:17:32.328Z,680.00
2023-05-05T04:18:32.298Z,744.00
2023-05-05T04:19:32.287Z,768.00
2023-05-05T04:20:32.375Z,824.00
2023-05-05T04:21:32.342Z,804.00
2023-05-05T04:22:32.415Z,844.00
2023-05-05T04:23:32.380Z,940.00
2023-05-05T04:24:32.474Z,956.00
2023-05-05T04:25:32.580Z,1020.00
2023-05-05T04:26:32.612Z,1000.00
2023-05-05T04:27:32.644Z,1056.00
2023-05-05T04:28:35.258Z,1144.00
2023-05-05T04:29:34.447Z,1144.00
2023-05-05T04:30:42.225Z,1160.00
2023-05-05T04:31:32.744Z,1244.00
2023-05-05T04:32:32.783Z,1312.00
2023-05-05T04:33:32.733Z,1292.00
2023-05-05T04:34:32.752Z,1356.00
2023-05-05T04:35:32.811Z,1388.00
2023-05-05T04:36:32.834Z,1464.00
2023-05-05T04:37:32.883Z,1604.00
2023-05-05T04:38:33.137Z,1760.00
2023-05-05T04:39:33.005Z,1792.00
2023-05-05T04:40:33.069Z,1940.00
2023-05-05T04:41:33.063Z,2156.00
2023-05-05T04:42:33.080Z,2268.00
2023-05-05T04:43:33.105Z,2332.00
2023-05-05T04:44:33.124Z,2600.00
2023-05-05T04:45:33.160Z,2656.00
2023-05-05T04:46:33.235Z,2836.00
2023-05-05T04:47:33.221Z,2964.00
2023-05-05T04:48:33.265Z,3028.00
2023-05-05T04:49:33.293Z,3228.00
2023-05-05T04:50:33.357Z,3308.00
2023-05-05T04:51:33.386Z,3488.00
2023-05-05T04:52:33.433Z,3536.00
2023-05-05T04:53:33.474Z,3860.00
2023-05-05T04:54:33.445Z,3948.00
2023-05-05T04:55:33.488Z,4344.00
2023-05-05T04:56:33.606Z,4448.00
2023-05-05T04:57:33.639Z,4696.00
2023-05-05T04:58:33.665Z,6340.00
2023-05-05T04:59:33.652Z,11388.00
2023-05-05T05:00:33.656Z,7148.00
2023-05-05T05:01:35.182Z,6428.00
2023-05-05T05:02:33.926Z,11076.00
2023-05-05T05:03:33.925Z,7348.00
2023-05-05T05:04:33.860Z,7500.00
2023-05-05T05:05:33.906Z,7660.00
2023-05-05T05:06:33.827Z,7812.00
2023-05-05T05:07:33.897Z,8520.00
2023-05-05T05:08:33.944Z,8912.00
2023-05-05T05:09:33.986Z,9512.00
2023-05-05T05:10:33.997Z,14176.00
2023-05-05T05:11:33.966Z,32160.00
2023-05-05T05:12:34.051Z,43968.00
2023-05-05T05:13:34.005Z,18752.00
2023-05-05T05:14:34.065Z,9324.00
2023-05-05T05:15:34.098Z,8728.00
2023-05-05T05:16:34.189Z,8828.00
2023-05-05T05:17:34.139Z,9916.00
2023-05-05T05:18:34.156Z,11544.00
2023-05-05T05:19:34.221Z,31424.00
2023-05-05T05:22:00.240Z,11180.00
2023-05-05T05:23:00.301Z,9712.00
2023-05-05T05:24:00.323Z,10648.00
2023-05-05T05:25:00.401Z,11276.00
2023-05-05T05:26:00.430Z,16352.00
2023-05-05T05:27:00.471Z,21920.00
2023-05-05T05:28:09.604Z,13728.00
2023-05-05T05:29:00.489Z,13000.00
2023-05-05T05:30:00.473Z,12192.00
2023-05-05T05:31:00.559Z,12444.00
2023-05-05T05:32:00.604Z,12220.00
2023-05-05T05:33:00.607Z,12824.00
2023-05-05T05:34:00.610Z,29184.00
2023-05-05T05:35:00.677Z,13588.00
2023-05-05T05:36:00.636Z,13852.00
2023-05-05T05:37:00.801Z,11488.00
2023-05-05T05:38:00.728Z,12344.00
2023-05-05T05:39:00.728Z,28448.00
2023-05-05T05:40:00.793Z,26080.00
2023-05-05T05:41:00.778Z,14720.00
2023-05-05T05:42:00.840Z,7652.00
2023-05-05T05:43:00.910Z,6744.00
2023-05-05T05:44:00.917Z,6188.00
2023-05-05T05:45:00.930Z,5652.00
2023-05-05T05:46:01.019Z,5068.00
2023-05-05T05:47:00.990Z,5008.00
2023-05-05T05:48:00.999Z,4620.00
2023-05-05T05:50:40.026Z,4316.00
2023-05-05T05:51:33.645Z,4180.00
2023-05-05T05:52:33.681Z,3744.00
2023-05-05T05:53:33.581Z,3652.00
2023-05-05T05:54:33.851Z,3188.00
2023-05-05T05:55:33.896Z,2876.00
2023-05-05T05:56:33.739Z,2896.00
2023-05-05T05:57:33.702Z,2772.00
2023-05-05T05:58:33.755Z,2520.00
2023-05-05T05:59:33.933Z,2496.00
2023-05-05T06:00:33.734Z,2420.00
2023-05-05T06:01:33.944Z,2508.00
2023-05-05T06:02:33.917Z,2784.00
2023-05-05T06:03:33.996Z,2756.00
2023-05-05T06:04:33.939Z,3164.00
2023-05-05T06:05:33.968Z,3404.00
2023-05-05T06:06:33.998Z,3688.00
2023-05-05T06:07:33.987Z,3640.00
2023-05-05T06:08:34.128Z,3692.00
2023-05-05T06:09:34.248Z,3528.00
2023-05-05T06:10:34.533Z,3416.00
2023-05-05T06:11:34.156Z,3220.00
2023-05-05T06:12:34.228Z,3316.00
2023-05-05T06:13:34.272Z,3444.00
2023-05-05T06:14:34.403Z,3684.00
2023-05-05T06:15:34.454Z,3932.00
2023-05-05T06:16:34.514Z,4312.00
2023-05-05T06:17:34.519Z,4696.00
2023-05-05T06:18:34.494Z,5268.00
2023-05-05T06:19:34.574Z,6248.00
2023-05-05T06:20:34.586Z,7292.00
2023-05-05T06:21:34.581Z,8312.00
2023-05-05T06:22:34.594Z,9852.00
2023-05-05T06:23:34.768Z,11212.00
2023-05-05T06:24:34.604Z,13416.00
2023-05-05T06:25:34.617Z,21376.00
2023-05-05T06:26:34.602Z,49504.00
2023-05-05T06:27:34.697Z,58176.00
2023-05-05T06:28:34.658Z,65248.00
2023-05-05T06:29:34.741Z,50240.00
2023-05-05T06:30:34.740Z,49056.00
2023-05-05T06:31:34.772Z,29120.00
2023-05-05T06:32:34.809Z,28896.00
2023-05-05T06:33:34.756Z,34656.00
2023-05-05T06:34:34.755Z,48224.00
2023-05-05T06:35:34.817Z,21984.00
2023-05-05T06:36:34.926Z,49280.00
2023-05-05T06:37:34.919Z,40128.00
2023-05-05T06:38:34.916Z,23264.00
2023-05-05T06:39:34.936Z,32448.00
2023-05-05T06:40:34.981Z,34976.00
2023-05-05T06:41:35.036Z,42304.00
2023-05-05T06:42:35.019Z,43968.00
2023-05-05T06:43:35.004Z,41344.00
2023-05-05T06:44:35.010Z,19072.00
2023-05-05T06:45:35.059Z,14468.00
2023-05-05T06:46:35.126Z,12168.00
2023-05-05T06:47:35.171Z,10024.00
2023-05-05T06:48:35.217Z,8204.00
2023-05-05T06:49:35.259Z,6632.00
2023-05-05T06:50:36.156Z,5748.00
2023-05-05T06:51:35.285Z,4952.00
2023-05-05T06:52:35.307Z,4300.00
2023-05-05T06:53:35.377Z,4028.00
2023-05-05T06:54:35.425Z,3896.00
2023-05-05T06:55:35.448Z,3572.00
2023-05-05T06:56:35.492Z,3424.00
2023-05-05T06:57:35.532Z,3336.00
2023-05-05T06:58:35.585Z,3192.00
2023-05-05T06:59:35.631Z,2920.00
2023-05-05T07:00:35.660Z,2716.00
2023-05-05T07:01:35.694Z,2804.00
2023-05-05T07:02:35.808Z,2544.00
2023-05-05T07:03:35.836Z,2276.00
2023-05-05T07:04:35.792Z,1992.00
2023-05-05T07:05:35.838Z,1484.00
2023-05-05T07:06:35.932Z,1076.00
2023-05-05T07:07:35.888Z,752.00
2023-05-05T07:08:35.907Z,652.00
2023-05-05T07:09:35.947Z,596.00
2023-05-05T07:10:35.994Z,592.00
2023-05-05T07:11:36.081Z,600.00
2023-05-05T07:12:36.172Z,620.00
2023-05-05T07:13:36.089Z,676.00
2023-05-05T07:14:36.139Z,780.00
2023-05-05T07:15:36.143Z,876.00
2023-05-05T07:16:36.226Z,1020.00
2023-05-05T07:17:36.214Z,1092.00
2023-05-05T07:18:36.190Z,1164.00
2023-05-05T07:19:36.230Z,1268.00
2023-05-05T07:20:36.261Z,1276.00
2023-05-05T07:21:36.271Z,1284.00
2023-05-05T07:22:36.276Z,1384.00
2023-05-05T07:23:36.379Z,1356.00
2023-05-05T07:24:36.380Z,1380.00
2023-05-05T07:25:36.386Z,1424.00
2023-05-05T07:26:36.401Z,1436.00
2023-05-05T07:27:36.390Z,1524.00
2023-05-05T07:28:36.441Z,1568.00
2023-05-05T07:29:36.495Z,1676.00
2023-05-05T07:30:36.537Z,1700.00
2023-05-05T07:31:36.535Z,1924.00
2023-05-05T07:32:36.563Z,2112.00
2023-05-05T07:33:36.568Z,2464.00
2023-05-05T07:34:36.539Z,2656.00
2023-05-05T07:35:36.556Z,2928.00
2023-05-05T07:36:36.589Z,3240.00
2023-05-05T07:37:36.697Z,3568.00
2023-05-05T07:38:36.646Z,3976.00
2023-05-05T07:39:36.677Z,4224.00
2023-05-05T07:40:36.659Z,3852.00
2023-05-05T07:41:36.663Z,3644.00
2023-05-05T07:42:36.720Z,3492.00
2023-05-05T07:43:37.908Z,3480.00
2023-05-05T07:44:36.801Z,3744.00
2023-05-05T07:45:36.900Z,3584.00
2023-05-05T07:46:36.894Z,3580.00
2023-05-05T07:47:36.886Z,3320.00
2023-05-05T07:48:36.953Z,2784.00
2023-05-05T07:49:36.946Z,2728.00
2023-05-05T07:50:36.945Z,2944.00
2023-05-05T07:51:36.965Z,3000.00
2023-05-05T07:52:44.986Z,3156.00
2023-05-05T07:53:37.061Z,3616.00
2023-05-05T07:54:37.083Z,4200.00
2023-05-05T07:55:37.091Z,4984.00
2023-05-05T07:56:37.131Z,5204.00
2023-05-05T07:57:37.147Z,5312.00
2023-05-05T07:58:37.196Z,5280.00
2023-05-05T07:59:37.222Z,5332.00
2023-05-05T08:00:37.258Z,5156.00
2023-05-05T08:01:37.276Z,5372.00
2023-05-05T08:02:37.355Z,5292.00
2023-05-05T08:03:37.596Z,5124.00
2023-05-05T08:04:37.409Z,5064.00
2023-05-05T08:05:37.408Z,5088.00
2023-05-05T08:06:37.456Z,5160.00
2023-05-05T08:07:37.450Z,5324.00
2023-05-05T08:08:37.472Z,5412.00
2023-05-05T08:09:37.528Z,5848.00
2023-05-05T08:10:37.567Z,6324.00
2023-05-05T08:11:37.511Z,6688.00
2023-05-05T08:12:37.606Z,7112.00
2023-05-05T08:13:37.568Z,7780.00
2023-05-05T08:14:37.692Z,8712.00
2023-05-05T08:15:37.601Z,9500.00
2023-05-05T08:16:37.670Z,9420.00
2023-05-05T08:17:37.718Z,8680.00
2023-05-05T08:18:37.753Z,8428.00
2023-05-05T08:19:37.768Z,8320.00
2023-05-05T08:20:37.770Z,8480.00
2023-05-05T08:21:37.808Z,8652.00
2023-05-05T08:22:37.807Z,9292.00
2023-05-05T08:23:37.871Z,9884.00
2023-05-05T08:24:37.892Z,11224.00
2023-05-05T08:25:37.966Z,11480.00
2023-05-05T08:26:37.990Z,12948.00
2023-05-05T08:27:38.085Z,14644.00
2023-05-05T08:28:38.035Z,17248.00
2023-05-05T08:29:38.144Z,19456.00
2023-05-05T08:30:38.225Z,16344.00
2023-05-05T08:31:38.325Z,20064.00
2023-05-05T08:32:38.322Z,27808.00
2023-05-05T08:33:38.220Z,18336.00
2023-05-05T08:34:38.236Z,19136.00
2023-05-05T08:35:38.263Z,20736.00
2023-05-05T08:36:38.277Z,19744.00
2023-05-05T08:37:38.290Z,19424.00
2023-05-05T08:38:38.331Z,18624.00
2023-05-05T08:39:38.397Z,17888.00
2023-05-05T08:40:38.464Z,18048.00
2023-05-05T08:41:38.488Z,18624.00
2023-05-05T08:42:39.604Z,19200.00
2023-05-05T08:43:38.501Z,20608.00
2023-05-05T08:44:38.579Z,23392.00
2023-05-05T08:45:38.492Z,25248.00
2023-05-05T08:46:38.635Z,28512.00
2023-05-05T08:47:38.600Z,29856.00
2023-05-05T08:48:38.629Z,20896.00
2023-05-05T08:49:38.719Z,18912.00
2023-05-05T08:50:38.704Z,18112.00
2023-05-05T08:51:38.735Z,16576.00
2023-05-05T08:52:38.786Z,17344.00
2023-05-05T08:53:38.814Z,31488.00
2023-05-05T08:54:38.894Z,20480.00
2023-05-05T08:55:38.897Z,20480.00
2023-05-05T08:56:39.071Z,21216.00
2023-05-05T08:57:38.910Z,30432.00
2023-05-05T08:58:38.884Z,23296.00
2023-05-05T08:59:38.879Z,22976.00
2023-05-05T09:00:38.957Z,23200.00
2023-05-05T09:01:38.993Z,21984.00
2023-05-05T09:02:39.031Z,20768.00
2023-05-05T09:03:39.010Z,20832.00
2023-05-05T09:04:38.961Z,22208.00
2023-05-05T09:05:39.039Z,50848.00
2023-05-05T09:06:39.102Z,27264.00
2023-05-05T09:07:39.103Z,39712.00
2023-05-05T09:08:39.178Z,52928.00
2023-05-05T09:09:39.177Z,58240.00
2023-05-05T09:10:39.221Z,61312.00
2023-05-05T09:11:39.323Z,60416.00
2023-05-05T09:12:39.346Z,57504.00
2023-05-05T09:13:39.371Z,54560.00
2023-05-05T09:14:39.442Z,52960.00
2023-05-05T09:15:39.386Z,50752.00
2023-05-05T09:16:39.448Z,47200.00
2023-05-05T09:17:39.581Z,48544.00
2023-05-05T09:18:39.502Z,46752.00
2023-05-05T09:19:39.485Z,46176.00
2023-05-05T09:20:39.552Z,34624.00
2023-05-05T09:21:39.660Z,42688.00
2023-05-05T09:22:39.676Z,49248.00
2023-05-05T09:23:39.694Z,47648.00
2023-05-05T09:24:39.687Z,50528.00
2023-05-05T09:25:39.703Z,38016.00
2023-05-05T09:26:39.696Z,49440.00
2023-05-05T09:27:39.712Z,47584.00
2023-05-05T09:28:39.701Z,33376.00
2023-05-05T09:29:39.701Z,43136.00
2023-05-05T09:30:39.722Z,29376.00
2023-05-05T09:31:39.693Z,27520.00
2023-05-05T09:32:39.751Z,26848.00
2023-05-05T09:33:39.767Z,26432.00
2023-05-05T09:34:39.822Z,29056.00
2023-05-05T09:35:39.824Z,32512.00
2023-05-05T09:36:39.828Z,33952.00
2023-05-05T09:37:39.833Z,28128.00
2023-05-05T09:38:39.876Z,29888.00
2023-05-05T09:39:39.866Z,28992.00
2023-05-05T09:40:39.895Z,32224.00
2023-05-05T09:41:39.888Z,32640.00
2023-05-05T09:42:39.969Z,25568.00
2023-05-05T09:43:39.982Z,44288.00
2023-05-05T09:44:40.002Z,29504.00
2023-05-05T09:45:40.046Z,39168.00
2023-05-05T09:46:40.166Z,41408.00
2023-05-05T09:47:40.170Z,39936.00
2023-05-05T09:48:40.191Z,45600.00
2023-05-05T09:49:40.193Z,46112.00
2023-05-05T09:50:40.204Z,48000.00
2023-05-05T09:51:40.198Z,40704.00
2023-05-05T09:52:40.273Z,40192.00
2023-05-05T09:53:40.270Z,37760.00
2023-05-05T09:54:40.285Z,39936.00
2023-05-05T09:55:40.302Z,41216.00
2023-05-05T09:56:40.316Z,43776.00
2023-05-05T09:57:40.300Z,42752.00
2023-05-05T09:58:40.318Z,44352.00
2023-05-05T09:59:40.323Z,41888.00
2023-05-05T10:00:40.419Z,40704.00
2023-05-05T10:01:40.448Z,38816.00
2023-05-05T10:02:40.444Z,37408.00
2023-05-05T10:03:40.436Z,35904.00
2023-05-05T10:04:40.460Z,34496.00
2023-05-05T10:05:40.454Z,37760.00
2023-05-05T10:06:40.428Z,25376.00
2023-05-05T10:07:40.476Z,24960.00
2023-05-05T10:08:40.486Z,23456.00
2023-05-05T10:09:40.553Z,30432.00
2023-05-05T10:10:40.555Z,38112.00
2023-05-05T10:11:40.543Z,38976.00
2023-05-05T10:12:40.610Z,35520.00
2023-05-05T10:13:40.625Z,36576.00
2023-05-05T10:14:40.619Z,39680.00
2023-05-05T10:15:40.626Z,36960.00
2023-05-05T10:16:40.723Z,37024.00
2023-05-05T10:17:42.558Z,34368.00
2023-05-05T10:18:40.668Z,34176.00
2023-05-05T10:19:40.699Z,32576.00
2023-05-05T10:20:40.725Z,33856.00
2023-05-05T10:21:42.050Z,33504.00
2023-05-05T10:22:40.845Z,34816.00
2023-05-05T10:23:40.874Z,34400.00
2023-05-05T10:24:40.926Z,33696.00
2023-05-05T10:25:40.949Z,33952.00
2023-05-05T10:26:40.989Z,31456.00
2023-05-05T10:27:41.064Z,29088.00
2023-05-05T10:28:41.072Z,29952.00
2023-05-05T10:29:41.088Z,29856.00
2023-05-05T10:30:41.113Z,28192.00
2023-05-05T10:31:41.146Z,26752.00
2023-05-05T10:33:41.279Z,26240.00
2023-05-05T10:34:41.255Z,26528.00
2023-05-05T10:35:41.239Z,28416.00
2023-05-05T10:36:41.232Z,26272.00
2023-05-05T10:37:41.233Z,25536.00
2023-05-05T10:38:41.292Z,21984.00
2023-05-05T10:39:41.296Z,22176.00
2023-05-05T10:40:41.565Z,26240.00
2023-05-05T10:41:41.405Z,24544.00
2023-05-05T10:42:41.492Z,24640.00
2023-05-05T10:43:41.476Z,21856.00
2023-05-05T10:44:41.504Z,21056.00
2023-05-05T10:45:41.637Z,24000.00
2023-05-05T10:46:41.696Z,24672.00
2023-05-05T10:47:41.712Z,23552.00
2023-05-05T10:48:41.757Z,23424.00
2023-05-05T10:49:41.701Z,20672.00
2023-05-05T10:50:41.758Z,20288.00
2023-05-05T10:51:41.794Z,23104.00
2023-05-05T10:52:41.808Z,23168.00
2023-05-05T10:53:41.865Z,22976.00
2023-05-05T10:54:41.916Z,22688.00
2023-05-05T10:55:42.041Z,21696.00
2023-05-05T10:56:41.988Z,22976.00
2023-05-05T10:57:42.019Z,21280.00
2023-05-05T10:58:58.419Z,18592.00
2023-05-05T10:59:42.111Z,17280.00
2023-05-05T11:00:42.122Z,17376.00
2023-05-05T11:01:42.172Z,17792.00
2023-05-05T11:02:43.042Z,18176.00
2023-05-05T11:03:42.376Z,17376.00
2023-05-05T11:04:42.280Z,17056.00
2023-05-05T11:05:42.367Z,17856.00
2023-05-05T11:06:42.360Z,17312.00
2023-05-05T11:07:42.407Z,18720.00
2023-05-05T11:08:42.467Z,18944.00
2023-05-05T11:09:42.523Z,20160.00
2023-05-05T11:10:42.567Z,19808.00
2023-05-05T11:11:42.720Z,20800.00
2023-05-05T11:12:42.651Z,20256.00
2023-05-05T11:13:42.733Z,21952.00
2023-05-05T11:14:42.741Z,21664.00
2023-05-05T11:15:42.800Z,18336.00
2023-05-05T11:16:42.890Z,19616.00
2023-05-05T11:17:42.943Z,17696.00
2023-05-05T11:18:42.953Z,16036.00
2023-05-05T11:19:43.038Z,14964.00
2023-05-05T11:20:43.072Z,13832.00
2023-05-05T11:21:43.045Z,14992.00
2023-05-05T11:22:43.101Z,14756.00
2023-05-05T11:23:43.148Z,13760.00
2023-05-05T11:24:43.181Z,15164.00
2023-05-05T11:25:43.228Z,18304.00
2023-05-05T11:26:43.413Z,19488.00
2023-05-05T11:27:43.339Z,19456.00
2023-05-05T11:28:43.309Z,20032.00
2023-05-05T11:29:43.347Z,19712.00
2023-05-05T11:30:43.434Z,18752.00
2023-05-05T11:31:43.461Z,19104.00
2023-05-05T11:32:43.515Z,17664.00
2023-05-05T11:33:43.549Z,18912.00
2023-05-05T11:34:43.616Z,18432.00
2023-05-05T11:35:43.662Z,17088.00
2023-05-05T11:36:43.699Z,18592.00
2023-05-05T11:37:43.823Z,19840.00
2023-05-05T11:38:43.788Z,20128.00
2023-05-05T11:39:43.828Z,19456.00
2023-05-05T11:40:43.808Z,20576.00
2023-05-05T11:41:43.894Z,15668.00
2023-05-05T11:42:43.869Z,15876.00
2023-05-05T11:43:43.923Z,20992.00
2023-05-05T11:44:43.954Z,20896.00
2023-05-05T11:45:44.000Z,20992.00
2023-05-05T11:46:44.057Z,16900.00
2023-05-05T11:47:44.088Z,18784.00
2023-05-05T11:48:44.101Z,18912.00
2023-05-05T11:49:44.142Z,19456.00
2023-05-05T11:50:44.197Z,18720.00
2023-05-05T11:51:44.278Z,17632.00
2023-05-05T11:52:44.408Z,18144.00
2023-05-05T11:53:44.322Z,17728.00
2023-05-05T11:54:44.262Z,16544.00
2023-05-05T11:55:44.331Z,17568.00
2023-05-05T11:56:44.365Z,17952.00
2023-05-05T11:57:45.037Z,16140.00
2023-05-05T11:58:44.499Z,13132.00
2023-05-05T11:59:44.412Z,12832.00
2023-05-05T12:00:44.426Z,12624.00
2023-05-05T12:01:44.358Z,12620.00
2023-05-05T12:02:44.515Z,12696.00
2023-05-05T12:03:44.514Z,12672.00
2023-05-05T12:04:44.522Z,13136.00
2023-05-05T12:05:44.508Z,12552.00
2023-05-05T12:06:44.530Z,13320.00
2023-05-05T12:07:44.548Z,12916.00
2023-05-05T12:08:44.615Z,12952.00
2023-05-05T12:09:44.591Z,15068.00
2023-05-05T12:10:44.628Z,12944.00
2023-05-05T12:11:44.682Z,12480.00
2023-05-05T12:12:44.759Z,12928.00
2023-05-05T12:13:44.800Z,15524.00
2023-05-05T12:14:44.860Z,16224.00
2023-05-05T12:15:44.903Z,16088.00
2023-05-05T12:16:45.060Z,16696.00
2023-05-05T12:17:45.231Z,14668.00
2023-05-05T12:18:44.972Z,17312.00
2023-05-05T12:19:45.072Z,16344.00
2023-05-05T12:20:45.042Z,19712.00
2023-05-05T12:21:45.069Z,15592.00
2023-05-05T12:22:45.123Z,18336.00
2023-05-05T12:23:45.171Z,18816.00
2023-05-05T12:24:45.201Z,18848.00
2023-05-05T12:25:45.149Z,20320.00
2023-05-05T12:26:45.197Z,21248.00
2023-05-05T12:27:45.241Z,21120.00
2023-05-05T12:28:45.282Z,20320.00
2023-05-05T12:29:45.284Z,20800.00
2023-05-05T12:30:45.361Z,20160.00
2023-05-05T12:31:45.455Z,19264.00
2023-05-05T12:32:45.478Z,19616.00
2023-05-05T12:33:45.383Z,16424.00
2023-05-05T12:34:45.421Z,14964.00
2023-05-05T12:35:45.468Z,16456.00
2023-05-05T12:36:45.505Z,14716.00
2023-05-05T12:37:45.579Z,18016.00
2023-05-05T12:38:45.617Z,17056.00
2023-05-05T12:39:45.671Z,14556.00
2023-05-05T12:40:45.794Z,13240.00
2023-05-05T12:41:45.704Z,13876.00
2023-05-05T12:42:46.332Z,13448.00
2023-05-05T12:43:45.804Z,13256.00
2023-05-05T12:44:45.848Z,14472.00
2023-05-05T12:45:45.939Z,15376.00
2023-05-05T12:46:45.946Z,14740.00